createdAt,value
2023-04-16T00:02:09.402Z,9.77
2023-04-16T00:04:36.596Z,5.40
2023-04-16T00:07:04.056Z,10.10
2023-04-16T00:09:31.081Z,9.40
2023-04-16T00:11:58.153Z,5.30
2023-04-16T00:14:25.178Z,5.18
2023-04-16T00:16:52.298Z,10.00
2023-04-16T00:19:19.349Z,5.93
2023-04-16T00:21:46.522Z,10.20
2023-04-16T00:24:13.893Z,5.72
2023-04-16T00:26:41.093Z,5.82
2023-04-16T00:29:08.378Z,6.45
2023-04-16T00:31:35.926Z,12.38
2023-04-16T00:34:04.423Z,5.53
2023-04-16T00:36:31.746Z,5.43
2023-04-16T00:38:58.805Z,5.95
2023-04-16T00:41:26.895Z,6.63
2023-04-16T00:43:53.981Z,12.20
2023-04-16T00:46:23.617Z,5.68
2023-04-16T00:48:52.724Z,6.50
2023-04-16T00:51:21.431Z,6.88
2023-04-16T00:53:48.922Z,6.45
2023-04-16T00:56:17.702Z,5.97
2023-04-16T00:58:44.930Z,9.57
2023-04-16T01:01:14.371Z,6.68
2023-04-16T01:03:45.820Z,6.15
2023-04-16T01:06:13.611Z,8.55
2023-04-16T01:08:40.750Z,5.95
2023-04-16T01:11:08.187Z,7.20
2023-04-16T01:13:39.244Z,12.52
2023-04-16T01:16:08.155Z,5.70
2023-04-16T01:18:36.203Z,7.80
2023-04-16T01:21:04.188Z,6.25
2023-04-16T01:23:31.699Z,10.18
2023-04-16T01:25:58.883Z,7.18
2023-04-16T01:28:25.965Z,6.00
2023-04-16T01:30:53.381Z,12.00
2023-04-16T01:33:29.751Z,7.60
2023-04-16T01:35:56.966Z,7.82
2023-04-16T01:38:24.213Z,6.55
2023-04-16T01:40:55.390Z,8.80
2023-04-16T01:43:22.480Z,12.05
2023-04-16T01:45:49.427Z,7.88
2023-04-16T01:48:16.664Z,12.63
2023-04-16T01:50:43.680Z,7.65
2023-04-16T01:53:10.844Z,8.23
2023-04-16T01:55:37.751Z,12.75
2023-04-16T01:58:05.023Z,9.07
2023-04-16T02:00:34.805Z,7.82
2023-04-16T02:03:02.039Z,8.00
2023-04-16T02:05:29.445Z,12.25
2023-04-16T02:07:57.525Z,8.50
2023-04-16T02:10:24.622Z,14.35
2023-04-16T02:12:51.983Z,8.15
2023-04-16T02:15:19.299Z,8.23
2023-04-16T02:17:47.973Z,8.93
2023-04-16T02:20:15.742Z,9.73
2023-04-16T02:22:50.533Z,10.57
2023-04-16T02:25:20.227Z,7.28
2023-04-16T02:27:47.861Z,15.05
2023-04-16T02:30:39.266Z,11.68
2023-04-16T02:33:08.030Z,15.38
2023-04-16T02:35:37.531Z,8.18
2023-04-16T02:38:06.149Z,9.20
2023-04-16T02:40:34.886Z,8.75
2023-04-16T02:43:02.197Z,15.45
2023-04-16T02:45:31.608Z,8.93
2023-04-16T02:47:59.824Z,10.98
2023-04-16T02:50:26.911Z,15.32
2023-04-16T02:52:53.968Z,12.75
2023-04-16T02:55:21.145Z,14.98
2023-04-16T02:57:48.432Z,15.98
2023-04-16T03:00:15.693Z,9.20
2023-04-16T03:02:43.047Z,10.23
2023-04-16T03:05:12.479Z,8.13
2023-04-16T03:07:40.813Z,13.98
2023-04-16T03:10:08.471Z,7.22
2023-04-16T03:12:36.352Z,7.65
2023-04-16T03:15:07.500Z,12.50
2023-04-16T03:17:34.659Z,6.65
2023-04-16T03:20:01.932Z,7.95
2023-04-16T03:22:29.006Z,6.65
2023-04-16T03:24:56.144Z,6.90
2023-04-16T03:27:23.282Z,10.60
2023-04-16T03:29:50.572Z,8.52
2023-04-16T03:32:17.947Z,5.70
2023-04-16T03:34:45.574Z,10.52
2023-04-16T03:37:12.641Z,6.28
2023-04-16T03:39:39.800Z,9.45
2023-04-16T03:42:06.962Z,5.25
2023-04-16T03:44:35.112Z,9.10
2023-04-16T03:47:02.545Z,6.47
2023-04-16T03:49:29.628Z,10.55
2023-04-16T03:51:58.082Z,5.43
2023-04-16T03:54:26.591Z,11.07
2023-04-16T03:57:04.837Z,5.80
2023-04-16T03:59:32.240Z,6.55
2023-04-16T04:02:00.225Z,12.82
2023-04-16T04:04:27.566Z,7.05
2023-04-16T04:06:54.588Z,7.38
2023-04-16T04:09:22.625Z,7.22
2023-04-16T04:11:50.826Z,12.30
2023-04-16T04:14:17.988Z,7.55
2023-04-16T04:16:45.006Z,6.93
2023-04-16T04:19:12.692Z,12.57
2023-04-16T04:21:39.662Z,7.22
2023-04-16T04:24:06.890Z,7.78
2023-04-16T04:26:34.462Z,8.02
2023-04-16T04:29:01.483Z,11.07
2023-04-16T04:31:30.208Z,11.25
2023-04-16T04:33:57.258Z,7.25
2023-04-16T04:36:24.251Z,6.55
2023-04-16T04:38:51.628Z,10.98
2023-04-16T04:41:20.048Z,5.93
2023-04-16T04:43:47.558Z,5.53
2023-04-16T04:46:14.773Z,5.72
2023-04-16T04:48:42.041Z,6.25
2023-04-16T04:51:09.261Z,10.52
2023-04-16T04:53:36.496Z,6.28
2023-04-16T04:56:11.827Z,12.98
2023-04-16T04:58:41.495Z,12.73
2023-04-16T05:01:08.682Z,6.13
2023-04-16T05:03:36.237Z,9.43
2023-04-16T05:06:03.430Z,7.78
2023-04-16T05:08:30.734Z,13.13
2023-04-16T05:10:57.704Z,7.18
2023-04-16T05:13:24.853Z,6.75
2023-04-16T05:15:51.904Z,6.38
2023-04-16T05:18:19.112Z,6.88
2023-04-16T05:20:46.220Z,4.97
2023-04-16T05:23:13.258Z,6.28
2023-04-16T05:25:40.294Z,10.32
2023-04-16T05:28:07.521Z,6.07
2023-04-16T05:30:34.603Z,6.45
2023-04-16T05:33:01.627Z,5.80
2023-04-16T05:35:28.598Z,6.10
2023-04-16T05:37:55.757Z,6.20
2023-04-16T05:40:22.751Z,6.15
2023-04-16T05:42:49.742Z,6.38
2023-04-16T05:45:16.697Z,7.18
2023-04-16T05:47:44.070Z,9.10
2023-04-16T05:50:11.331Z,5.90
2023-04-16T05:52:38.710Z,5.80
2023-04-16T05:55:06.328Z,5.85
2023-04-16T05:57:33.868Z,5.95
2023-04-16T06:00:00.902Z,8.05
2023-04-16T06:02:28.023Z,6.75
2023-04-16T06:04:55.132Z,6.35
2023-04-16T06:07:22.625Z,6.28
2023-04-16T06:09:49.798Z,6.63
2023-04-16T06:12:16.842Z,6.68
2023-04-16T06:14:43.851Z,11.40
2023-04-16T06:17:10.845Z,9.70
2023-04-16T06:19:37.776Z,11.15
2023-04-16T06:22:07.600Z,6.47
2023-04-16T06:24:35.385Z,7.65
2023-04-16T06:27:03.096Z,9.45
2023-04-16T06:29:40.434Z,7.30
2023-04-16T06:32:09.194Z,7.85
2023-04-16T06:34:36.311Z,7.90
2023-04-16T06:37:03.462Z,7.50
2023-04-16T06:39:31.071Z,11.73
2023-04-16T06:41:58.140Z,5.88
2023-04-16T06:44:25.107Z,6.10
2023-04-16T06:46:52.134Z,13.07
2023-04-16T06:49:19.102Z,8.73
2023-04-16T06:51:46.238Z,8.85
2023-04-16T06:54:13.226Z,12.00
2023-04-16T06:56:40.366Z,6.28
2023-04-16T06:59:07.896Z,7.28
2023-04-16T07:01:35.263Z,11.18
2023-04-16T07:04:02.589Z,11.77
2023-04-16T07:06:29.802Z,6.32
2023-04-16T07:08:56.720Z,12.15
2023-04-16T07:11:24.078Z,6.55
2023-04-16T07:13:51.295Z,12.02
2023-04-16T07:16:18.430Z,8.68
2023-04-16T07:18:45.637Z,11.38
2023-04-16T07:21:12.676Z,7.30
2023-04-16T07:23:39.626Z,11.07
2023-04-16T07:26:06.711Z,8.55
2023-04-16T07:28:33.820Z,11.13
2023-04-16T07:31:00.971Z,12.43
2023-04-16T07:33:28.073Z,12.50
2023-04-16T07:35:55.165Z,11.48
2023-04-16T07:38:22.123Z,13.00
2023-04-16T07:40:49.183Z,11.95
2023-04-16T07:43:16.538Z,11.57
2023-04-16T07:45:43.581Z,11.10
2023-04-16T07:48:11.074Z,11.30
2023-04-16T07:50:38.118Z,9.52
2023-04-16T07:53:07.586Z,9.95
2023-04-16T07:55:34.595Z,10.85
2023-04-16T07:58:02.844Z,8.55
2023-04-16T08:00:30.196Z,8.75
2023-04-16T08:02:57.282Z,9.18
2023-04-16T08:05:24.552Z,8.52
2023-04-16T08:07:51.500Z,8.77
2023-04-16T08:10:18.609Z,7.95
2023-04-16T08:12:45.585Z,7.75
2023-04-16T08:15:12.600Z,6.53
2023-04-16T08:17:39.590Z,7.82
2023-04-16T08:20:07.198Z,5.80
2023-04-16T08:22:34.433Z,6.35
2023-04-16T08:25:01.811Z,3.55
2023-04-16T08:27:28.850Z,5.18
2023-04-16T08:29:56.116Z,5.10
2023-04-16T08:32:23.165Z,5.18
2023-04-16T08:34:50.305Z,4.70
2023-04-16T08:37:18.002Z,4.57
2023-04-16T08:39:45.095Z,4.00
2023-04-16T08:42:24.872Z,3.95
2023-04-16T08:44:56.257Z,3.90
2023-04-16T08:47:25.662Z,3.60
2023-04-16T08:49:58.387Z,3.83
2023-04-16T08:52:30.722Z,3.47
2023-04-16T08:55:10.130Z,4.53
2023-04-16T08:57:47.286Z,3.80
2023-04-16T09:00:14.919Z,3.83
2023-04-16T09:02:43.031Z,3.30
2023-04-16T09:05:14.175Z,2.95
2023-04-16T09:07:42.252Z,2.95
2023-04-16T09:10:10.059Z,2.70
2023-04-16T09:12:37.418Z,2.97
2023-04-16T09:15:06.090Z,3.13
2023-04-16T09:17:34.998Z,2.80
2023-04-16T09:20:02.343Z,3.42
2023-04-16T09:22:29.348Z,3.03
2023-04-16T09:24:56.285Z,3.17
2023-04-16T09:27:25.472Z,2.80
2023-04-16T09:29:53.129Z,2.90
2023-04-16T09:32:27.343Z,2.85
2023-04-16T09:35:00.819Z,2.78
2023-04-16T09:37:30.009Z,2.53
2023-04-16T09:40:01.923Z,3.00
2023-04-16T09:42:31.817Z,2.50
2023-04-16T09:45:01.363Z,3.13
2023-04-16T09:47:43.352Z,3.08
2023-04-16T09:50:16.458Z,3.00
2023-04-16T09:52:47.937Z,2.92
2023-04-16T09:55:15.438Z,2.70
2023-04-16T09:57:42.624Z,2.78
2023-04-16T10:00:11.159Z,2.80
2023-04-16T10:02:42.257Z,3.15
2023-04-16T10:05:10.337Z,2.92
2023-04-16T10:07:37.908Z,3.15
2023-04-16T10:10:05.473Z,2.60
2023-04-16T10:12:36.040Z,2.50
2023-04-16T10:15:03.150Z,2.88
2023-04-16T10:17:31.551Z,2.88
2023-04-16T10:19:59.176Z,2.55
2023-04-16T10:22:26.673Z,2.50
2023-04-16T10:24:54.442Z,2.35
2023-04-16T10:27:21.918Z,2.50
2023-04-16T10:29:49.560Z,2.72
2023-04-16T10:32:18.678Z,2.50
2023-04-16T10:34:45.988Z,2.47
2023-04-16T10:37:12.978Z,2.30
2023-04-16T10:39:40.119Z,2.58
2023-04-16T10:42:14.492Z,2.13
2023-04-16T10:44:45.021Z,2.30
2023-04-16T10:47:14.246Z,2.17
2023-04-16T10:49:42.648Z,2.30
2023-04-16T10:52:16.966Z,2.13
2023-04-16T10:54:44.326Z,2.10
2023-04-16T10:57:17.967Z,2.40
2023-04-16T10:59:46.137Z,2.22
2023-04-16T11:02:18.506Z,1.90
2023-04-16T11:04:47.473Z,1.70
2023-04-16T11:07:18.971Z,2.00
2023-04-16T11:09:46.827Z,2.00
2023-04-16T11:12:27.252Z,1.70
2023-04-16T11:15:15.443Z,1.92
2023-04-16T11:17:51.782Z,1.90
2023-04-16T11:20:24.328Z,2.00
2023-04-16T11:22:53.173Z,1.90
2023-04-16T11:25:31.499Z,1.63
2023-04-16T11:27:59.341Z,1.70
2023-04-16T11:30:34.722Z,1.80
2023-04-16T11:33:09.556Z,1.75
2023-04-16T11:35:37.284Z,1.52
2023-04-16T11:38:06.084Z,2.15
2023-04-16T11:40:33.560Z,1.88
2023-04-16T11:43:14.911Z,2.15
2023-04-16T11:45:59.281Z,1.67
2023-04-16T11:48:45.459Z,1.80
2023-04-16T11:51:12.512Z,1.58
2023-04-16T11:53:49.985Z,1.73
2023-04-16T11:56:28.691Z,1.33
2023-04-16T11:59:13.359Z,2.00
2023-04-16T12:01:41.959Z,1.60
2023-04-16T12:04:09.629Z,1.40
2023-04-16T12:06:37.057Z,1.73
2023-04-16T12:09:26.120Z,1.65
2023-04-16T12:11:53.678Z,1.60
2023-04-16T12:14:21.460Z,1.40
2023-04-16T12:16:48.837Z,1.40
2023-04-16T12:19:16.083Z,1.63
2023-04-16T12:21:47.259Z,1.70
2023-04-16T12:24:24.058Z,1.45
2023-04-16T12:27:03.186Z,1.30
2023-04-16T12:29:30.488Z,1.15
2023-04-16T12:31:57.872Z,1.30
2023-04-16T12:34:27.742Z,1.85
2023-04-16T12:37:12.415Z,1.70
2023-04-16T12:39:39.329Z,1.30
2023-04-16T12:42:09.920Z,1.38
2023-04-16T12:44:37.040Z,1.00
2023-04-16T12:47:05.611Z,1.25
2023-04-16T12:49:32.878Z,1.25
2023-04-16T12:51:59.861Z,1.17
2023-04-16T12:54:29.807Z,1.13
2023-04-16T12:56:57.381Z,0.98
2023-04-16T12:59:24.773Z,1.23
2023-04-16T13:01:51.801Z,1.20
2023-04-16T13:04:19.245Z,1.33
2023-04-16T13:06:46.415Z,0.90
2023-04-16T13:09:14.705Z,1.20
2023-04-16T13:11:41.869Z,1.10
2023-04-16T13:14:10.833Z,1.15
2023-04-16T13:16:38.821Z,1.23
2023-04-16T13:19:05.934Z,1.00
2023-04-16T13:21:34.405Z,1.30
2023-04-16T13:24:01.514Z,1.30
2023-04-16T13:26:28.578Z,1.10
2023-04-16T13:28:55.682Z,1.10
2023-04-16T13:31:22.924Z,1.23
2023-04-16T13:33:50.730Z,1.10
2023-04-16T13:36:17.788Z,1.02
2023-04-16T13:38:44.764Z,0.90
2023-04-16T13:41:11.757Z,1.05
2023-04-16T13:43:40.852Z,0.90
2023-04-16T13:46:07.992Z,1.08
2023-04-16T13:48:34.987Z,1.13
2023-04-16T13:51:02.851Z,1.00
2023-04-16T13:53:29.853Z,0.90
2023-04-16T13:55:57.017Z,1.10
2023-04-16T13:58:24.229Z,1.17
2023-04-16T14:00:51.427Z,1.17
2023-04-16T14:03:18.537Z,1.13
2023-04-16T14:05:45.488Z,1.10
2023-04-16T14:08:14.814Z,0.85
2023-04-16T14:10:41.864Z,1.20
2023-04-16T14:13:08.977Z,0.85
2023-04-16T14:15:37.274Z,0.90
2023-04-16T14:18:04.612Z,1.00
2023-04-16T14:20:31.729Z,0.85
2023-04-16T14:22:58.909Z,0.80
2023-04-16T14:25:26.317Z,1.05
2023-04-16T14:27:53.378Z,0.82
2023-04-16T14:30:20.376Z,1.27
2023-04-16T14:32:47.481Z,0.80
2023-04-16T14:35:14.510Z,1.00
2023-04-16T14:37:41.576Z,0.90
2023-04-16T14:40:09.887Z,0.68
2023-04-16T14:42:37.845Z,0.80
2023-04-16T14:45:06.682Z,0.80
2023-04-16T14:47:34.482Z,0.82
2023-04-16T14:50:02.596Z,0.88
2023-04-16T14:52:33.137Z,1.00
2023-04-16T14:55:00.173Z,0.65
2023-04-16T14:57:27.134Z,0.88
2023-04-16T14:59:54.221Z,0.68
2023-04-16T15:02:21.835Z,0.90
2023-04-16T15:04:49.133Z,0.90
2023-04-16T15:07:16.344Z,0.80
2023-04-16T15:09:43.424Z,0.70
2023-04-16T15:12:10.440Z,0.55
2023-04-16T15:14:37.432Z,1.15
2023-04-16T15:17:04.570Z,0.70
2023-04-16T15:19:31.617Z,0.73
2023-04-16T15:21:59.199Z,0.80
2023-04-16T15:24:26.301Z,0.75
2023-04-16T15:26:53.200Z,0.70
2023-04-16T15:29:20.378Z,0.95
2023-04-16T15:31:48.090Z,0.52
2023-04-16T15:34:15.131Z,0.70
2023-04-16T15:36:42.349Z,0.80
2023-04-16T15:39:10.254Z,0.63
2023-04-16T15:41:50.220Z,0.80
2023-04-16T15:44:26.724Z,0.80
2023-04-16T15:46:53.677Z,0.90
2023-04-16T15:49:20.637Z,0.70
2023-04-16T15:51:47.599Z,0.75
2023-04-16T15:54:14.616Z,0.80
2023-04-16T15:56:41.676Z,0.60
2023-04-16T15:59:09.779Z,0.73
2023-04-16T16:01:37.125Z,0.95
2023-04-16T16:04:07.779Z,0.98
2023-04-16T16:06:35.273Z,1.00
2023-04-16T16:09:02.205Z,1.00
2023-04-16T16:11:29.431Z,0.95
2023-04-16T16:13:56.443Z,0.80
2023-04-16T16:16:23.503Z,0.80
2023-04-16T16:18:50.526Z,0.73
2023-04-16T16:21:17.546Z,0.82
2023-04-16T16:23:44.539Z,0.98
2023-04-16T16:26:11.666Z,0.98
2023-04-16T16:28:38.671Z,0.98
2023-04-16T16:31:06.948Z,0.80
2023-04-16T16:33:33.921Z,0.90
2023-04-16T16:36:01.187Z,1.00
2023-04-16T16:38:28.215Z,0.90
2023-04-16T16:40:55.542Z,0.80
2023-04-16T16:43:22.600Z,1.23
2023-04-16T16:45:49.650Z,0.90
2023-04-16T16:48:16.618Z,1.10
2023-04-16T16:50:43.578Z,0.93
2023-04-16T16:53:10.552Z,0.80
2023-04-16T16:55:37.658Z,0.88
2023-04-16T16:58:04.686Z,0.90
2023-04-16T17:00:31.898Z,1.20
2023-04-16T17:02:59.021Z,0.90
2023-04-16T17:05:26.175Z,0.85
2023-04-16T17:07:53.153Z,0.90
2023-04-16T17:10:21.430Z,0.88
2023-04-16T17:12:49.428Z,0.80
2023-04-16T17:15:18.501Z,0.90
2023-04-16T17:17:46.793Z,0.98
2023-04-16T17:20:14.310Z,1.00
2023-04-16T17:22:41.838Z,0.75
2023-04-16T17:25:09.326Z,0.88
2023-04-16T17:27:36.299Z,0.60
2023-04-16T17:30:05.468Z,0.90
2023-04-16T17:32:33.008Z,0.75
2023-04-16T17:35:01.712Z,1.00
2023-04-16T17:37:28.763Z,1.13
2023-04-16T17:39:56.031Z,0.90
2023-04-16T17:42:24.584Z,0.93
2023-04-16T17:44:51.929Z,1.00
2023-04-16T17:47:19.000Z,0.70
2023-04-16T17:49:46.048Z,0.90
2023-04-16T17:52:13.300Z,0.75
2023-04-16T17:54:40.408Z,1.25
2023-04-16T17:57:07.789Z,1.23
2023-04-16T17:59:34.878Z,0.80
2023-04-16T18:02:02.117Z,1.40
2023-04-16T18:04:29.283Z,1.10
2023-04-16T18:06:56.380Z,1.10
2023-04-16T18:09:23.339Z,0.90
2023-04-16T18:11:50.327Z,0.98
2023-04-16T18:14:20.099Z,1.27
2023-04-16T18:16:48.738Z,1.10
2023-04-16T18:19:16.482Z,1.10
2023-04-16T18:21:43.862Z,1.30
2023-04-16T18:24:11.349Z,1.10
2023-04-16T18:26:41.061Z,1.00
2023-04-16T18:29:09.149Z,1.20
2023-04-16T18:31:36.365Z,1.10
2023-04-16T18:34:03.382Z,1.40
2023-04-16T18:36:31.236Z,1.00
2023-04-16T18:39:02.119Z,1.50
2023-04-16T18:41:30.567Z,1.30
2023-04-16T18:43:57.680Z,0.95
2023-04-16T18:46:25.473Z,1.30
2023-04-16T18:48:52.585Z,1.17
2023-04-16T18:51:19.569Z,1.33
2023-04-16T18:53:46.579Z,1.10
2023-04-16T18:56:13.572Z,1.40
2023-04-16T18:58:40.486Z,1.52
2023-04-16T19:01:11.431Z,1.55
2023-04-16T19:03:38.877Z,1.33
2023-04-16T19:06:06.368Z,1.40
2023-04-16T19:08:33.594Z,1.67
2023-04-16T19:11:00.640Z,1.35
2023-04-16T19:13:27.683Z,1.38
2023-04-16T19:15:59.606Z,1.30
2023-04-16T19:18:26.819Z,1.45
2023-04-16T19:21:00.804Z,1.52
2023-04-16T19:23:28.162Z,1.40
2023-04-16T19:25:58.179Z,1.38
2023-04-16T19:28:25.575Z,1.60
2023-04-16T19:30:53.829Z,1.50
2023-04-16T19:33:20.953Z,1.70
2023-04-16T19:35:48.157Z,1.60
2023-04-16T19:38:15.656Z,1.90
2023-04-16T19:40:46.690Z,1.55
2023-04-16T19:43:14.028Z,1.45
2023-04-16T19:45:44.879Z,1.77
2023-04-16T19:48:12.217Z,1.42
2023-04-16T19:50:42.799Z,1.60
2023-04-16T19:53:10.648Z,1.80
2023-04-16T19:55:40.523Z,1.73
2023-04-16T19:58:08.138Z,1.73
2023-04-16T20:00:37.933Z,1.88
2023-04-16T20:03:06.107Z,1.98
2023-04-16T20:05:33.157Z,2.40
2023-04-16T20:08:00.428Z,2.00
2023-04-16T20:10:27.914Z,2.00
2023-04-16T20:12:54.901Z,2.10
2023-04-16T20:15:21.836Z,2.00
2023-04-16T20:17:48.925Z,1.90
2023-04-16T20:20:16.483Z,1.90
2023-04-16T20:22:43.903Z,1.90
2023-04-16T20:25:11.531Z,2.28
2023-04-16T20:27:38.699Z,2.65
2023-04-16T20:30:06.449Z,2.20
2023-04-16T20:32:33.629Z,2.15
2023-04-16T20:35:02.037Z,2.08
2023-04-16T20:37:29.282Z,2.20
2023-04-16T20:39:56.375Z,2.40
2023-04-16T20:42:26.399Z,2.25
2023-04-16T20:44:56.454Z,2.53
2023-04-16T20:47:23.980Z,2.40
2023-04-16T20:49:52.795Z,2.20
2023-04-16T20:52:20.502Z,2.20
2023-04-16T20:54:47.953Z,2.00
2023-04-16T20:57:15.098Z,2.10
2023-04-16T20:59:42.140Z,2.35
2023-04-16T21:02:09.203Z,2.40
2023-04-16T21:04:36.425Z,2.10
2023-04-16T21:07:04.260Z,1.83
2023-04-16T21:09:31.644Z,2.30
2023-04-16T21:11:58.656Z,2.33
2023-04-16T21:14:25.654Z,2.42
2023-04-16T21:16:52.838Z,2.20
2023-04-16T21:19:20.086Z,1.70
2023-04-16T21:21:47.107Z,2.30
2023-04-16T21:24:14.155Z,2.50
2023-04-16T21:26:41.202Z,2.25
2023-04-16T21:29:08.212Z,2.10
2023-04-16T21:31:35.383Z,2.25
2023-04-16T21:34:02.384Z,2.70
2023-04-16T21:36:31.992Z,1.98
2023-04-16T21:38:58.990Z,2.38
2023-04-16T21:41:26.551Z,2.50
2023-04-16T21:43:53.562Z,2.42
2023-04-16T21:46:21.268Z,2.40
2023-04-16T21:48:48.635Z,2.53
2023-04-16T21:51:15.854Z,2.47
2023-04-16T21:53:42.842Z,2.83
2023-04-16T21:56:09.839Z,3.33
2023-04-16T21:58:36.864Z,3.65
2023-04-16T22:01:03.978Z,3.38
2023-04-16T22:03:31.250Z,3.55
2023-04-16T22:06:00.953Z,3.17
2023-04-16T22:08:29.271Z,3.25
2023-04-16T22:10:58.368Z,3.58
2023-04-16T22:13:30.081Z,4.03
2023-04-16T22:15:57.813Z,4.00
2023-04-16T22:18:25.792Z,3.97
2023-04-16T22:20:54.889Z,4.22
2023-04-16T22:23:23.198Z,4.47
2023-04-16T22:25:50.558Z,4.50
2023-04-16T22:28:17.498Z,2.60
2023-04-16T22:30:44.473Z,2.92
2023-04-16T22:33:11.501Z,4.43
2023-04-16T22:35:38.563Z,5.15
2023-04-16T22:38:05.760Z,5.00
2023-04-16T22:40:32.829Z,5.00
2023-04-16T22:42:59.739Z,5.10
2023-04-16T22:45:27.384Z,5.20
2023-04-16T22:47:54.634Z,4.85
2023-04-16T22:50:23.178Z,4.60
2023-04-16T22:52:50.675Z,4.78
2023-04-16T22:55:17.724Z,4.50
2023-04-16T22:57:44.681Z,4.88
2023-04-16T23:00:16.227Z,5.75
2023-04-16T23:02:43.817Z,5.78
2023-04-16T23:05:11.078Z,5.72
2023-04-16T23:07:38.132Z,3.78
2023-04-16T23:10:05.623Z,6.28
2023-04-16T23:12:32.692Z,5.82
2023-04-16T23:15:00.799Z,5.28
2023-04-16T23:17:28.179Z,6.47
2023-04-16T23:19:55.545Z,5.68
2023-04-16T23:22:22.517Z,5.20
2023-04-16T23:24:49.492Z,6.03
2023-04-16T23:27:16.488Z,5.32
2023-04-16T23:29:43.434Z,6.28
2023-04-16T23:32:10.564Z,3.67
2023-04-16T23:34:37.501Z,5.55
2023-04-16T23:37:04.496Z,5.57
2023-04-16T23:39:31.566Z,5.97
2023-04-16T23:41:58.591Z,5.20
2023-04-16T23:44:25.548Z,6.10
2023-04-16T23:46:52.599Z,6.30
2023-04-16T23:49:19.728Z,3.33
2023-04-16T23:51:46.738Z,7.55
2023-04-16T23:54:13.715Z,4.85
2023-04-16T23:56:41.489Z,6.95
2023-04-16T23:59:10.985Z,4.47
